• Join FlightAware (Why Join?)
  • Login
  • US Flag 
04:52PM EDT


 

Airport Tracker/Info


-or-


 

Live Flight TrackerFlight Track Log ✈ SWA1031 ✈ 05-May-2013 ✈ KMDW - KSAT

Flight Track Log - Related Links

Times and Time Zones

All times are in EDT time to prevent confusion due to time zone crossing. See the SWA1031 flight status page for this flight to view local times or setup timezone preferences in your user account.

Time Position Orientation Groundspeed Altitude Reporting Facility
EDT Latitude Longitude Course Direction KTS MPH feet Rate Location/Type
09:30PM 41.8000 -87.7167 180° South 154 177 2,300  Level Chicago TRACON
09:32PM 41.7097 -87.7417 192° South 236 272 5,800 2,340 Climbing Chicago Center
09:33PM 41.6556 -87.8178 226° Southwest 280 322 8,600 2,820 Climbing Chicago Center
09:34PM 41.5994 -87.8981 227° Southwest 295 339 11,600 2,040 Climbing Chicago Center
09:35PM 41.5347 -87.9903 227° Southwest 344 396 12,900 840 Climbing Chicago Center
09:36PM 41.2235 -88.2500 180° South  Level FlightAware Approximate
09:36PM 41.4483 -88.1128 227° Southwest 391 450 13,400  Level Chicago Center
09:37PM 41.3642 -88.1983 217° Southwest 407 468 16,400 2,820 Climbing Chicago Center
09:38PM 41.2586 -88.2456 199° South 408 470 19,300 2,580 Climbing Chicago Center
09:39PM 41.1500 -88.2953 199° South 412 474 21,700 2,220 Climbing Chicago Center
09:40PM 41.0367 -88.3467 199° South 426 490 23,900 2,040 Climbing Chicago Center
09:41PM 40.8942 -88.4097 198° South 448 516 26,000 1,800 Climbing Chicago Center
09:42PM 40.7714 -88.4661 199° South 466 536 27,600 1,800 Climbing Chicago Center
09:43PM 40.6467 -88.5197 198° South 473 544 29,800 2,040 Climbing Chicago Center
09:44PM 40.5239 -88.5739 199° South 469 540 31,800 1,020 Climbing Chicago Center
09:45PM 40.4078 -88.6256 199° South 464 534 32,000 240 Climbing Chicago Center
09:46PM 40.2908 -88.6989 206° Southwest 479 551 32,300 960 Climbing Chicago Center
09:47PM 40.1975 -88.8200 225° Southwest 472 543 34,000 1,800 Climbing Chicago Center
09:48PM 40.1186 -88.9169 223° Southwest 474 545 35,600 1,740 Climbing Kansas City Center
09:49PM 40.0269 -89.0347 225° Southwest 466 536 37,300 1,380 Climbing Kansas City Center
09:50PM 39.9186 -89.1733 224° Southwest 456 525 38,500 900 Climbing Kansas City Center
09:51PM 39.8264 -89.2883 224° Southwest 456 525 39,200 600 Climbing Kansas City Center
09:52PM 39.7325 -89.4067 224° Southwest 464 534 39,800 360 Climbing Kansas City Center
09:53PM 39.6475 -89.5114 224° Southwest 471 542 40,000 60 Climbing Kansas City Center
09:54PM 39.5539 -89.6303 224° Southwest 473 544 40,000  Level Kansas City Center
09:55PM 39.4406 -89.7711 224° Southwest 472 543 40,000  Level Kansas City Center
09:56PM 39.3469 -89.8869 224° Southwest 470 541 40,000  Level Kansas City Center
09:57PM 39.2531 -90.0036 224° Southwest 469 540 40,000  Level Kansas City Center
09:58PM 39.1592 -90.1192 224° Southwest 468 539 40,000  Level Kansas City Center
09:59PM 39.0658 -90.2344 224° Southwest 469 540 40,000  Level Kansas City Center
10:00PM 38.9731 -90.3472 223° Southwest 466 536 40,000  Level Kansas City Center
10:01PM 38.8739 -90.4681 224° Southwest 456 525 40,000  Level Kansas City Center
10:02PM 38.7769 -90.5772 221° Southwest 459 528 40,000  Level Kansas City Center
10:03PM 38.6778 -90.6922 222° Southwest 457 526 40,000  Level Kansas City Center
10:04PM 38.5847 -90.8000 222° Southwest 457 526 40,000  Level Kansas City Center
10:05PM 38.4897 -90.9097 222° Southwest 460 529 40,000  Level Kansas City Center
10:06PM 38.3947 -91.0189 222° Southwest 461 531 40,000  Level Kansas City Center
10:07PM 38.2989 -91.1297 222° Southwest 465 535 40,000  Level Kansas City Center
10:08PM 38.2019 -91.2389 222° Southwest 466 536 40,000  Level Kansas City Center
10:09PM 38.0864 -91.3700 222° Southwest 462 532 40,000  Level Kansas City Center
10:10PM 37.9881 -91.4797 221° Southwest 464 534 40,000  Level Kansas City Center
10:11PM 37.8867 -91.5936 222° Southwest 475 547 40,000  Level Kansas City Center
10:12PM 37.7881 -91.7036 221° Southwest 472 543 40,000  Level Kansas City Center
10:13PM 37.6897 -91.8142 222° Southwest 470 541 40,000  Level Kansas City Center
10:14PM 37.5928 -91.9236 222° Southwest 465 535 40,000  Level Kansas City Center
10:15PM 37.4953 -92.0308 221° Southwest 462 532 40,000  Level Kansas City Center
10:16PM 37.3972 -92.1386 221° Southwest 462 532 40,000  Level Kansas City Center
10:18PM 37.3017 -92.2439 221° Southwest 457 526 40,000  Level Kansas City Center
10:19PM 37.2042 -92.3478 220° Southwest 455 524 40,000  Level Kansas City Center
10:20PM 37.1064 -92.4553 221° Southwest 458 527 40,000  Level Kansas City Center
10:21PM 37.0092 -92.5628 221° Southwest 461 531 40,000  Level Kansas City Center
10:22PM 36.9097 -92.6686 220° Southwest 466 536 40,000  Level Kansas City Center
10:23PM 36.8114 -92.7736 221° Southwest 465 535 40,000  Level Kansas City Center
10:24PM 36.7083 -92.8906 222° Southwest 466 536 40,000  Level Memphis Center
10:25PM 36.6122 -92.9964 221° Southwest 466 536 40,000  Level Memphis Center
10:26PM 36.5142 -93.0964 219° Southwest 466 536 40,000  Level Memphis Center
10:27PM 36.4075 -93.2089 220° Southwest 466 536 40,000  Level Memphis Center
10:28PM 36.3114 -93.3136 221° Southwest 461 531 40,000  Level Memphis Center
10:29PM 36.2150 -93.4131 220° Southwest 461 531 40,000  Level Memphis Center
10:30PM 36.1108 -93.5017 215° Southwest 461 531 40,000  Level Memphis Center
10:31PM 36.0042 -93.5900 214° Southwest 466 536 40,000  Level Memphis Center
10:32PM 35.8975 -93.6781 214° Southwest 466 536 40,000  Level Memphis Center
10:33PM 35.7931 -93.7633 214° Southwest 461 531 40,000  Level Memphis Center
10:34PM 35.6886 -93.8511 214° Southwest 461 531 40,000  Level Memphis Center
10:35PM 35.5858 -93.9386 215° Southwest 456 525 40,000  Level Memphis Center
10:36PM 35.4856 -94.0211 214° Southwest 456 525 40,000  Level Memphis Center
10:37PM 35.3786 -94.1081 214° Southwest 456 525 40,000  Level Memphis Center
10:38PM 35.2697 -94.1947 213° Southwest 456 525 40,000  Level Memphis Center
10:39PM 35.0914 -94.3408 214° Southwest 457 526 40,000  Level Fort Worth Center
10:40PM 34.9889 -94.4256 214° Southwest 463 533 40,000  Level Fort Worth Center
10:41PM 34.8806 -94.5131 214° Southwest 463 533 40,000  Level Fort Worth Center
10:42PM 34.7761 -94.5975 214° Southwest 463 533 40,000  Level Fort Worth Center
10:43PM 34.6736 -94.6792 213° Southwest 457 526 40,000  Level Fort Worth Center
10:44PM 34.5711 -94.7606 213° Southwest 457 526 40,000  Level Fort Worth Center
10:45PM 34.4683 -94.8442 214° Southwest 457 526 40,000  Level Fort Worth Center
10:46PM 34.3636 -94.9253 213° Southwest 452 520 40,000  Level Fort Worth Center
10:47PM 34.2569 -95.0114 214° Southwest 452 520 40,000  Level Fort Worth Center
10:48PM 34.1581 -95.0894 213° Southwest 447 514 40,000  Level Fort Worth Center
10:49PM 34.0553 -95.1697 213° Southwest 447 514 40,000  Level Fort Worth Center
10:50PM 33.9544 -95.2475 213° Southwest 447 514 40,000  Level Fort Worth Center
10:51PM 33.8492 -95.3278 212° Southwest 447 514 40,000  Level Fort Worth Center
10:52PM 33.7525 -95.4050 214° Southwest 447 514 40,000  Level Fort Worth Center
10:53PM 33.6514 -95.4844 213° Southwest 447 514 40,000  Level Fort Worth Center
10:54PM 33.5483 -95.5667 214° Southwest 447 514 40,000  Level Fort Worth Center
10:55PM 33.4450 -95.6433 212° Southwest 437 503 40,000  Level Fort Worth Center
10:56PM 33.3542 -95.7150 213° Southwest 437 503 40,000  Level Fort Worth Center
10:57PM 33.2406 -95.8014 212° Southwest 437 503 40,000  Level Fort Worth Center
10:58PM 33.1475 -95.8703 212° Southwest 437 503 40,000  Level Fort Worth Center
10:59PM 33.0378 -95.9564 213° Southwest 437 503 40,000  Level Fort Worth Center
11:00PM 32.9469 -96.0272 213° Southwest 437 503 40,000  Level Fort Worth Center
11:01PM 32.8331 -96.1106 212° Southwest 437 503 40,000  Level Fort Worth Center
11:02PM 32.7439 -96.1783 213° Southwest 437 503 40,000  Level Fort Worth Center
11:03PM 32.6339 -96.2639 213° Southwest 437 503 40,000  Level Fort Worth Center
11:04PM 32.5406 -96.3317 211° Southwest 437 503 40,000  Level Fort Worth Center
11:05PM 32.4286 -96.4142 212° Southwest 437 503 40,000  Level Fort Worth Center
11:06PM 32.3311 -96.4914 214° Southwest 437 503 40,000  Level Fort Worth Center
11:07PM 32.2375 -96.5586 211° Southwest 432 497 40,000  Level Fort Worth Center
11:08PM 32.1378 -96.6356 213° Southwest 432 497 40,000  Level Fort Worth Center
11:09PM 32.0361 -96.7100 212° Southwest 437 503 40,000  Level Fort Worth Center
11:10PM 31.9361 -96.7842 212° Southwest 428 493 40,000  Level Fort Worth Center
11:11PM 31.8258 -96.8656 212° Southwest 434 499 40,000  Level Fort Worth Center
11:12PM 31.7219 -96.9419 212° Southwest 434 499 40,000  Level Fort Worth Center
11:14PM 31.5244 -97.0844 212° Southwest 430 495 40,000  Level Houston Center
11:15PM 31.4069 -97.1317 199° South 443 510 40,000  Level Houston Center
11:16PM 31.2900 -97.1769 198° South 440 506 40,000  Level Houston Center
11:17PM 31.1736 -97.2225 199° South 439 505 40,000  Level Houston Center
11:18PM 31.0589 -97.2678 199° South 435 501 40,000  Level Houston Center
11:19PM 30.9500 -97.3092 198° South 440 506 40,000 -600 Level Houston Center
11:20PM 30.8111 -97.3631 198° South 441 507 38,900 -1,860 Descending Houston Center
11:21PM 30.6983 -97.4064 198° South 429 494 36,300 -3,060 Descending Houston Center
11:23PM 30.5747 -97.4333 191° South 460 529 32,800 -3,600 Descending Houston Center
11:24PM 30.4433 -97.4494 186° South 470 541 29,100 -3,480 Descending Houston Center
11:25PM 30.3169 -97.4706 188° South 458 527 25,900 -2,940 Descending Houston Center
11:26PM 30.2008 -97.4942 190° South 422 486 23,200 -2,760 Descending Houston Center
11:27PM 30.0931 -97.5261 194° South 401 461 20,300 -2,820 Descending Houston Center
11:27PM 30.0517 -97.5983 237° Southwest 351 404 18,300 -2,640 Descending Houston Center
11:28PM 30.0353 -97.6289 238° Southwest 359 413 17,700 -2,100 Descending Houston Center
11:28PM 29.9994 -97.6872 235° Southwest 350 403 16,400 -2,100 Descending Houston Center
11:29PM 29.9792 -97.7219 236° Southwest 354 407 15,600 -1,920 Descending Houston Center
11:29PM 29.9453 -97.7786 235° Southwest 352 405 14,500 -1,800 Descending Houston Center
11:30PM 29.9250 -97.8147 237° Southwest 348 400 13,800 -1,260 Descending Houston Center
11:30PM 29.8847 -97.8900 238° Southwest 328 377 13,000 -780 Descending Houston Center
11:32PM 29.8386 -97.9800 239° Southwest 301 346 12,300 -1,140 Descending Houston Center
11:33PM 29.7661 -98.0350 213° Southwest 312 359 10,600 -1,560 Descending Houston Center
11:34PM 29.6956 -98.0869 213° Southwest 305 351 9,200 -1,320 Descending Houston Center
11:35PM 29.6097 -98.1144 196° South 297 342 8,000 -660 Descending Houston Center
11:35PM 29.5431 -98.1203 184° South 274 315 8,000 -480 Level Houston Center
11:36PM 29.4725 -98.1292 186° South 251 289 7,100 -1,260 Descending Houston Center
11:38PM 29.4036 -98.1544 198° South 249 287 5,500 -1,380 Descending Houston Center
11:39PM 29.3753 -98.2242 245° Southwest 210 242 4,100 -1,200 Descending Houston Center
11:40PM 29.3878 -98.2764 285° West 193 222 3,200 -600 Descending Houston Center
11:40PM 29.4153 -98.3233 304° West 200 230 3,100 -120 Descending Houston Center
11:41PM 29.4258 -98.3350 316° Northwest 198 228 3,100 -240 Level Houston Center
11:41PM 29.4508 -98.3694 310° West 196 226 2,900 -420 Descending Houston Center
11:42PM 29.4608 -98.3797 318° Northwest 189 217 2,700 -900 Descending Houston Center
11:42PM 29.4817 -98.4064 312° West 173 199 2,100 -840 Descending Houston Center
11:43PM 29.4911 -98.4183 312° West 167 192 1,900 -840 Descending Houston Center
11:43PM 29.5081 -98.4417 310° West 142 163 1,300 -840 Descending Houston Center
11:44PM 29.5181 -98.4531 315° West 150 173 1,100 -600 Descending Houston Center